sensor_id;sensor_type;location;lat;lon;timestamp;P1;durP1;ratioP1;P2;durP2;ratioP2
48002;SDS011;33768;48.578;11.574;2022-12-05T00:02:08;29.37;;;14.37;;
48002;SDS011;33768;48.578;11.574;2022-12-05T00:05:12;27.20;;;13.73;;
48002;SDS011;33768;48.578;11.574;2022-12-05T00:08:16;25.33;;;13.00;;
48002;SDS011;33768;48.578;11.574;2022-12-05T00:11:22;25.20;;;14.13;;
48002;SDS011;33768;48.578;11.574;2022-12-05T00:14:28;30.67;;;13.87;;
48002;SDS011;33768;48.578;11.574;2022-12-05T00:17:31;27.43;;;13.13;;
48002;SDS011;33768;48.578;11.574;2022-12-05T00:20:36;28.43;;;13.87;;
48002;SDS011;33768;48.578;11.574;2022-12-05T00:23:40;30.80;;;13.70;;
48002;SDS011;33768;48.578;11.574;2022-12-05T00:26:44;27.47;;;13.57;;
48002;SDS011;33768;48.578;11.574;2022-12-05T00:29:48;30.60;;;14.63;;
48002;SDS011;33768;48.578;11.574;2022-12-05T00:32:53;32.30;;;13.60;;
48002;SDS011;33768;48.578;11.574;2022-12-05T00:36:01;27.23;;;13.50;;
48002;SDS011;33768;48.578;11.574;2022-12-05T00:39:10;26.57;;;13.13;;
48002;SDS011;33768;48.578;11.574;2022-12-05T00:42:16;27.37;;;12.83;;
48002;SDS011;33768;48.578;11.574;2022-12-05T00:45:21;30.00;;;14.43;;
48002;SDS011;33768;48.578;11.574;2022-12-05T00:48:29;27.27;;;14.10;;
48002;SDS011;33768;48.578;11.574;2022-12-05T00:51:35;25.07;;;13.70;;
48002;SDS011;33768;48.578;11.574;2022-12-05T00:54:42;26.30;;;13.27;;
48002;SDS011;33768;48.578;11.574;2022-12-05T00:57:46;27.07;;;12.80;;
48002;SDS011;33768;48.578;11.574;2022-12-05T01:00:50;27.07;;;13.47;;
48002;SDS011;33768;48.578;11.574;2022-12-05T01:03:55;22.93;;;11.63;;
48002;SDS011;33768;48.578;11.574;2022-12-05T01:07:00;21.43;;;11.70;;
48002;SDS011;33768;48.578;11.574;2022-12-05T01:10:04;21.70;;;11.10;;
48002;SDS011;33768;48.578;11.574;2022-12-05T01:13:09;21.60;;;11.13;;
48002;SDS011;33768;48.578;11.574;2022-12-05T01:16:15;19.93;;;10.80;;
48002;SDS011;33768;48.578;11.574;2022-12-05T01:19:29;19.00;;;10.80;;
48002;SDS011;33768;48.578;11.574;2022-12-05T01:22:34;17.43;;;9.63;;
48002;SDS011;33768;48.578;11.574;2022-12-05T01:25:39;16.60;;;9.83;;
48002;SDS011;33768;48.578;11.574;2022-12-05T01:28:47;19.03;;;10.07;;
48002;SDS011;33768;48.578;11.574;2022-12-05T01:31:52;15.90;;;9.10;;
48002;SDS011;33768;48.578;11.574;2022-12-05T01:34:57;16.33;;;9.20;;
48002;SDS011;33768;48.578;11.574;2022-12-05T01:38:02;18.37;;;10.53;;
48002;SDS011;33768;48.578;11.574;2022-12-05T01:41:07;15.63;;;9.40;;
48002;SDS011;33768;48.578;11.574;2022-12-05T01:47:19;19.00;;;9.80;;
48002;SDS011;33768;48.578;11.574;2022-12-05T01:50:25;18.27;;;10.13;;
48002;SDS011;33768;48.578;11.574;2022-12-05T01:53:30;16.97;;;9.57;;
48002;SDS011;33768;48.578;11.574;2022-12-05T01:56:34;17.43;;;10.33;;
48002;SDS011;33768;48.578;11.574;2022-12-05T01:59:41;16.67;;;8.87;;
48002;SDS011;33768;48.578;11.574;2022-12-05T02:02:55;17.20;;;8.67;;
48002;SDS011;33768;48.578;11.574;2022-12-05T02:06:02;19.90;;;9.03;;
48002;SDS011;33768;48.578;11.574;2022-12-05T02:09:07;15.87;;;8.40;;
48002;SDS011;33768;48.578;11.574;2022-12-05T02:12:12;16.27;;;9.10;;
48002;SDS011;33768;48.578;11.574;2022-12-05T02:15:37;20.83;;;9.50;;
48002;SDS011;33768;48.578;11.574;2022-12-05T02:25:43;19.53;;;9.57;;
48002;SDS011;33768;48.578;11.574;2022-12-05T02:32:58;18.30;;;9.23;;
48002;SDS011;33768;48.578;11.574;2022-12-05T02:36:14;16.60;;;9.50;;
48002;SDS011;33768;48.578;11.574;2022-12-05T02:39:25;15.83;;;8.83;;
48002;SDS011;33768;48.578;11.574;2022-12-05T02:42:55;14.67;;;8.50;;
48002;SDS011;33768;48.578;11.574;2022-12-05T02:46:05;14.27;;;7.83;;
48002;SDS011;33768;48.578;11.574;2022-12-05T02:49:16;15.13;;;8.70;;
48002;SDS011;33768;48.578;11.574;2022-12-05T02:52:27;13.57;;;8.07;;
48002;SDS011;33768;48.578;11.574;2022-12-05T02:55:33;14.90;;;8.37;;
48002;SDS011;33768;48.578;11.574;2022-12-05T02:58:39;15.70;;;8.00;;
48002;SDS011;33768;48.578;11.574;2022-12-05T03:01:48;16.47;;;8.93;;
48002;SDS011;33768;48.578;11.574;2022-12-05T03:04:54;13.77;;;8.53;;
48002;SDS011;33768;48.578;11.574;2022-12-05T03:08:00;18.70;;;9.90;;
48002;SDS011;33768;48.578;11.574;2022-12-05T03:11:07;16.53;;;9.53;;
48002;SDS011;33768;48.578;11.574;2022-12-05T03:14:13;17.13;;;9.10;;
48002;SDS011;33768;48.578;11.574;2022-12-05T03:17:21;18.67;;;9.50;;
48002;SDS011;33768;48.578;11.574;2022-12-05T03:20:33;19.70;;;11.43;;
48002;SDS011;33768;48.578;11.574;2022-12-05T03:23:42;24.67;;;11.73;;
48002;SDS011;33768;48.578;11.574;2022-12-05T03:27:03;19.87;;;11.47;;
48002;SDS011;33768;48.578;11.574;2022-12-05T03:30:15;21.47;;;11.53;;
48002;SDS011;33768;48.578;11.574;2022-12-05T03:33:21;24.93;;;11.50;;
48002;SDS011;33768;48.578;11.574;2022-12-05T03:36:31;21.47;;;9.73;;
48002;SDS011;33768;48.578;11.574;2022-12-05T03:39:43;21.03;;;10.93;;
48002;SDS011;33768;48.578;11.574;2022-12-05T03:42:54;21.27;;;10.10;;
48002;SDS011;33768;48.578;11.574;2022-12-05T03:46:16;17.60;;;9.53;;
48002;SDS011;33768;48.578;11.574;2022-12-05T03:49:33;16.23;;;9.10;;
48002;SDS011;33768;48.578;11.574;2022-12-05T03:52:42;21.10;;;10.47;;
48002;SDS011;33768;48.578;11.574;2022-12-05T03:55:56;17.03;;;9.30;;
48002;SDS011;33768;48.578;11.574;2022-12-05T04:02:29;17.30;;;8.67;;
48002;SDS011;33768;48.578;11.574;2022-12-05T04:05:39;16.10;;;8.50;;
48002;SDS011;33768;48.578;11.574;2022-12-05T04:08:49;19.33;;;9.73;;
48002;SDS011;33768;48.578;11.574;2022-12-05T04:11:58;17.43;;;9.67;;
48002;SDS011;33768;48.578;11.574;2022-12-05T04:15:10;20.80;;;9.33;;
48002;SDS011;33768;48.578;11.574;2022-12-05T04:18:19;20.53;;;9.97;;
48002;SDS011;33768;48.578;11.574;2022-12-05T04:21:29;20.27;;;10.40;;
48002;SDS011;33768;48.578;11.574;2022-12-05T04:24:43;19.20;;;10.20;;
48002;SDS011;33768;48.578;11.574;2022-12-05T04:31:27;19.73;;;9.63;;
48002;SDS011;33768;48.578;11.574;2022-12-05T04:34:37;20.33;;;10.53;;
48002;SDS011;33768;48.578;11.574;2022-12-05T04:37:44;21.93;;;11.33;;
48002;SDS011;33768;48.578;11.574;2022-12-05T04:44:00;25.97;;;11.73;;
48002;SDS011;33768;48.578;11.574;2022-12-05T04:47:09;22.07;;;11.50;;
48002;SDS011;33768;48.578;11.574;2022-12-05T04:50:17;18.80;;;10.27;;
48002;SDS011;33768;48.578;11.574;2022-12-05T04:53:24;22.37;;;12.37;;
48002;SDS011;33768;48.578;11.574;2022-12-05T04:56:32;20.70;;;11.00;;
48002;SDS011;33768;48.578;11.574;2022-12-05T04:59:37;21.00;;;10.60;;
48002;SDS011;33768;48.578;11.574;2022-12-05T05:02:47;23.27;;;11.27;;
48002;SDS011;33768;48.578;11.574;2022-12-05T05:05:55;23.87;;;12.03;;
48002;SDS011;33768;48.578;11.574;2022-12-05T05:09:00;20.07;;;10.90;;
48002;SDS011;33768;48.578;11.574;2022-12-05T05:12:04;22.87;;;11.60;;
48002;SDS011;33768;48.578;11.574;2022-12-05T05:15:09;21.27;;;11.00;;
48002;SDS011;33768;48.578;11.574;2022-12-05T05:18:13;23.77;;;11.40;;
48002;SDS011;33768;48.578;11.574;2022-12-05T05:21:19;21.87;;;10.83;;
48002;SDS011;33768;48.578;11.574;2022-12-05T05:24:23;23.70;;;11.83;;
48002;SDS011;33768;48.578;11.574;2022-12-05T05:27:28;25.57;;;11.73;;
48002;SDS011;33768;48.578;11.574;2022-12-05T05:30:32;25.53;;;12.83;;
48002;SDS011;33768;48.578;11.574;2022-12-05T05:33:36;25.07;;;13.60;;
48002;SDS011;33768;48.578;11.574;2022-12-05T05:36:41;24.70;;;12.70;;
48002;SDS011;33768;48.578;11.574;2022-12-05T05:39:46;23.37;;;12.53;;
48002;SDS011;33768;48.578;11.574;2022-12-05T05:42:50;20.30;;;11.23;;
48002;SDS011;33768;48.578;11.574;2022-12-05T05:45:54;20.03;;;11.23;;
48002;SDS011;33768;48.578;11.574;2022-12-05T05:48:59;20.53;;;11.50;;
48002;SDS011;33768;48.578;11.574;2022-12-05T05:52:04;20.77;;;11.47;;
48002;SDS011;33768;48.578;11.574;2022-12-05T05:55:08;21.10;;;10.93;;
48002;SDS011;33768;48.578;11.574;2022-12-05T05:58:12;20.97;;;11.40;;
48002;SDS011;33768;48.578;11.574;2022-12-05T06:01:17;21.63;;;10.40;;
48002;SDS011;33768;48.578;11.574;2022-12-05T06:04:25;19.17;;;10.50;;
48002;SDS011;33768;48.578;11.574;2022-12-05T06:07:29;20.23;;;10.13;;
48002;SDS011;33768;48.578;11.574;2022-12-05T06:10:34;20.03;;;11.20;;
48002;SDS011;33768;48.578;11.574;2022-12-05T06:13:38;28.93;;;13.77;;
48002;SDS011;33768;48.578;11.574;2022-12-05T06:16:42;18.97;;;11.23;;
48002;SDS011;33768;48.578;11.574;2022-12-05T06:19:46;17.77;;;10.07;;
48002;SDS011;33768;48.578;11.574;2022-12-05T06:22:51;21.00;;;10.67;;
48002;SDS011;33768;48.578;11.574;2022-12-05T06:25:55;18.60;;;10.67;;
48002;SDS011;33768;48.578;11.574;2022-12-05T06:28:59;18.00;;;10.07;;
48002;SDS011;33768;48.578;11.574;2022-12-05T06:32:03;20.00;;;10.10;;
48002;SDS011;33768;48.578;11.574;2022-12-05T06:35:08;16.83;;;9.87;;
48002;SDS011;33768;48.578;11.574;2022-12-05T06:38:18;20.63;;;10.33;;
48002;SDS011;33768;48.578;11.574;2022-12-05T06:41:22;18.93;;;10.67;;
48002;SDS011;33768;48.578;11.574;2022-12-05T06:44:38;19.53;;;10.40;;
48002;SDS011;33768;48.578;11.574;2022-12-05T06:47:46;17.03;;;9.80;;
48002;SDS011;33768;48.578;11.574;2022-12-05T06:50:51;18.20;;;10.37;;
48002;SDS011;33768;48.578;11.574;2022-12-05T06:53:56;21.77;;;11.97;;
48002;SDS011;33768;48.578;11.574;2022-12-05T06:57:00;24.53;;;11.87;;
48002;SDS011;33768;48.578;11.574;2022-12-05T07:00:05;19.37;;;10.63;;
48002;SDS011;33768;48.578;11.574;2022-12-05T07:03:28;20.33;;;11.77;;
48002;SDS011;33768;48.578;11.574;2022-12-05T07:06:33;22.50;;;11.57;;
48002;SDS011;33768;48.578;11.574;2022-12-05T07:09:38;22.50;;;11.83;;
48002;SDS011;33768;48.578;11.574;2022-12-05T07:12:54;25.03;;;13.73;;
48002;SDS011;33768;48.578;11.574;2022-12-05T07:15:58;26.33;;;15.37;;
48002;SDS011;33768;48.578;11.574;2022-12-05T07:19:03;21.10;;;11.80;;
48002;SDS011;33768;48.578;11.574;2022-12-05T07:22:07;25.73;;;12.87;;
48002;SDS011;33768;48.578;11.574;2022-12-05T07:25:11;21.97;;;11.10;;
48002;SDS011;33768;48.578;11.574;2022-12-05T07:28:15;24.67;;;12.57;;
48002;SDS011;33768;48.578;11.574;2022-12-05T07:31:20;23.70;;;12.13;;
48002;SDS011;33768;48.578;11.574;2022-12-05T07:34:25;22.80;;;11.50;;
48002;SDS011;33768;48.578;11.574;2022-12-05T07:37:30;23.00;;;12.00;;
48002;SDS011;33768;48.578;11.574;2022-12-05T07:40:34;22.97;;;12.10;;
48002;SDS011;33768;48.578;11.574;2022-12-05T07:43:40;26.40;;;12.83;;
48002;SDS011;33768;48.578;11.574;2022-12-05T07:46:44;24.83;;;11.97;;
48002;SDS011;33768;48.578;11.574;2022-12-05T07:49:48;28.93;;;15.10;;
48002;SDS011;33768;48.578;11.574;2022-12-05T07:52:53;24.53;;;14.80;;
48002;SDS011;33768;48.578;11.574;2022-12-05T07:55:57;25.73;;;13.93;;
48002;SDS011;33768;48.578;11.574;2022-12-05T07:59:03;25.00;;;13.43;;
48002;SDS011;33768;48.578;11.574;2022-12-05T08:02:07;23.37;;;12.67;;
48002;SDS011;33768;48.578;11.574;2022-12-05T08:05:12;23.17;;;12.00;;
48002;SDS011;33768;48.578;11.574;2022-12-05T08:08:16;30.53;;;16.10;;
48002;SDS011;33768;48.578;11.574;2022-12-05T08:11:21;47.60;;;33.30;;
48002;SDS011;33768;48.578;11.574;2022-12-05T08:14:26;79.13;;;52.13;;
48002;SDS011;33768;48.578;11.574;2022-12-05T08:17:30;40.00;;;20.97;;
48002;SDS011;33768;48.578;11.574;2022-12-05T08:20:36;28.80;;;16.03;;
48002;SDS011;33768;48.578;11.574;2022-12-05T08:23:40;25.10;;;13.47;;
48002;SDS011;33768;48.578;11.574;2022-12-05T08:26:45;27.70;;;13.10;;
48002;SDS011;33768;48.578;11.574;2022-12-05T08:29:50;25.60;;;13.20;;
48002;SDS011;33768;48.578;11.574;2022-12-05T08:32:53;30.50;;;16.03;;
48002;SDS011;33768;48.578;11.574;2022-12-05T08:36:01;35.50;;;14.17;;
48002;SDS011;33768;48.578;11.574;2022-12-05T08:39:07;63.50;;;32.23;;
48002;SDS011;33768;48.578;11.574;2022-12-05T08:42:15;32.80;;;17.57;;
48002;SDS011;33768;48.578;11.574;2022-12-05T08:45:21;27.70;;;14.77;;
48002;SDS011;33768;48.578;11.574;2022-12-05T08:48:26;35.83;;;14.10;;
48002;SDS011;33768;48.578;11.574;2022-12-05T08:51:32;45.73;;;23.83;;
48002;SDS011;33768;48.578;11.574;2022-12-05T08:54:36;30.70;;;15.57;;
48002;SDS011;33768;48.578;11.574;2022-12-05T08:57:40;31.13;;;15.30;;
48002;SDS011;33768;48.578;11.574;2022-12-05T09:00:44;31.97;;;14.57;;
48002;SDS011;33768;48.578;11.574;2022-12-05T09:03:49;29.67;;;14.17;;
48002;SDS011;33768;48.578;11.574;2022-12-05T09:06:53;28.80;;;12.90;;
48002;SDS011;33768;48.578;11.574;2022-12-05T09:09:57;29.27;;;14.53;;
48002;SDS011;33768;48.578;11.574;2022-12-05T09:13:01;29.03;;;16.53;;
48002;SDS011;33768;48.578;11.574;2022-12-05T09:16:09;31.17;;;15.43;;
48002;SDS011;33768;48.578;11.574;2022-12-05T09:19:18;35.23;;;17.43;;
48002;SDS011;33768;48.578;11.574;2022-12-05T09:22:23;33.67;;;16.20;;
48002;SDS011;33768;48.578;11.574;2022-12-05T09:25:27;29.03;;;14.77;;
48002;SDS011;33768;48.578;11.574;2022-12-05T09:28:32;30.83;;;14.20;;
48002;SDS011;33768;48.578;11.574;2022-12-05T09:31:37;28.40;;;14.40;;
48002;SDS011;33768;48.578;11.574;2022-12-05T09:34:41;28.57;;;13.43;;
48002;SDS011;33768;48.578;11.574;2022-12-05T09:37:45;28.07;;;14.63;;
48002;SDS011;33768;48.578;11.574;2022-12-05T09:40:50;30.97;;;14.13;;
48002;SDS011;33768;48.578;11.574;2022-12-05T09:44:04;29.57;;;13.57;;
48002;SDS011;33768;48.578;11.574;2022-12-05T09:50:47;27.27;;;14.10;;
48002;SDS011;33768;48.578;11.574;2022-12-05T09:53:56;28.77;;;14.30;;
48002;SDS011;33768;48.578;11.574;2022-12-05T09:57:00;27.90;;;14.37;;
48002;SDS011;33768;48.578;11.574;2022-12-05T10:00:06;25.97;;;13.50;;
48002;SDS011;33768;48.578;11.574;2022-12-05T10:03:26;29.87;;;14.07;;
48002;SDS011;33768;48.578;11.574;2022-12-05T10:06:56;27.23;;;13.07;;
48002;SDS011;33768;48.578;11.574;2022-12-05T10:13:44;27.77;;;14.10;;
48002;SDS011;33768;48.578;11.574;2022-12-05T10:17:02;30.10;;;14.57;;
48002;SDS011;33768;48.578;11.574;2022-12-05T10:20:18;27.60;;;14.47;;
48002;SDS011;33768;48.578;11.574;2022-12-05T10:26:42;31.13;;;17.43;;
48002;SDS011;33768;48.578;11.574;2022-12-05T10:33:14;25.33;;;14.20;;
48002;SDS011;33768;48.578;11.574;2022-12-05T10:36:23;27.97;;;15.70;;
48002;SDS011;33768;48.578;11.574;2022-12-05T10:39:29;23.47;;;13.57;;
48002;SDS011;33768;48.578;11.574;2022-12-05T10:42:33;25.53;;;13.37;;
48002;SDS011;33768;48.578;11.574;2022-12-05T10:45:40;23.67;;;13.00;;
48002;SDS011;33768;48.578;11.574;2022-12-05T10:48:47;26.87;;;14.17;;
48002;SDS011;33768;48.578;11.574;2022-12-05T10:51:51;34.30;;;14.37;;
48002;SDS011;33768;48.578;11.574;2022-12-05T10:55:02;24.60;;;13.50;;
48002;SDS011;33768;48.578;11.574;2022-12-05T11:01:13;21.57;;;12.93;;
48002;SDS011;33768;48.578;11.574;2022-12-05T11:04:20;25.23;;;13.50;;
48002;SDS011;33768;48.578;11.574;2022-12-05T11:07:30;29.13;;;14.13;;
48002;SDS011;33768;48.578;11.574;2022-12-05T11:10:35;26.10;;;14.00;;
48002;SDS011;33768;48.578;11.574;2022-12-05T11:13:54;25.70;;;14.10;;
48002;SDS011;33768;48.578;11.574;2022-12-05T11:17:01;22.93;;;13.37;;
48002;SDS011;33768;48.578;11.574;2022-12-05T11:23:22;26.60;;;14.40;;
48002;SDS011;33768;48.578;11.574;2022-12-05T11:26:37;25.07;;;13.50;;
48002;SDS011;33768;48.578;11.574;2022-12-05T11:29:43;23.30;;;13.77;;
48002;SDS011;33768;48.578;11.574;2022-12-05T11:36:23;23.13;;;13.23;;
48002;SDS011;33768;48.578;11.574;2022-12-05T11:39:47;26.57;;;14.43;;
48002;SDS011;33768;48.578;11.574;2022-12-05T11:53:29;27.53;;;15.67;;
48002;SDS011;33768;48.578;11.574;2022-12-05T12:06:45;29.30;;;15.67;;
48002;SDS011;33768;48.578;11.574;2022-12-05T12:13:32;26.40;;;14.83;;
48002;SDS011;33768;48.578;11.574;2022-12-05T12:34:22;24.83;;;14.77;;
48002;SDS011;33768;48.578;11.574;2022-12-05T12:44:49;25.57;;;13.17;;
48002;SDS011;33768;48.578;11.574;2022-12-05T12:51:12;22.97;;;13.80;;
48002;SDS011;33768;48.578;11.574;2022-12-05T12:54:30;22.47;;;13.80;;
48002;SDS011;33768;48.578;11.574;2022-12-05T13:02:10;21.27;;;13.07;;
48002;SDS011;33768;48.578;11.574;2022-12-05T13:05:33;24.07;;;13.70;;
48002;SDS011;33768;48.578;11.574;2022-12-05T13:09:05;22.70;;;13.47;;
48002;SDS011;33768;48.578;11.574;2022-12-05T13:12:20;21.43;;;12.67;;
48002;SDS011;33768;48.578;11.574;2022-12-05T13:18:58;22.00;;;14.80;;
48002;SDS011;33768;48.578;11.574;2022-12-05T13:22:03;23.17;;;13.83;;
48002;SDS011;33768;48.578;11.574;2022-12-05T13:25:14;20.67;;;12.77;;
48002;SDS011;33768;48.578;11.574;2022-12-05T13:28:28;19.33;;;12.37;;
48002;SDS011;33768;48.578;11.574;2022-12-05T13:31:37;23.73;;;12.97;;
48002;SDS011;33768;48.578;11.574;2022-12-05T13:34:44;21.03;;;12.67;;
48002;SDS011;33768;48.578;11.574;2022-12-05T13:37:52;21.07;;;12.50;;
48002;SDS011;33768;48.578;11.574;2022-12-05T13:41:14;21.07;;;12.87;;
48002;SDS011;33768;48.578;11.574;2022-12-05T13:51:11;21.60;;;13.43;;
48002;SDS011;33768;48.578;11.574;2022-12-05T13:54:26;18.33;;;12.67;;
48002;SDS011;33768;48.578;11.574;2022-12-05T14:00:42;21.63;;;12.53;;
48002;SDS011;33768;48.578;11.574;2022-12-05T14:09:59;19.43;;;12.07;;
48002;SDS011;33768;48.578;11.574;2022-12-05T14:30:28;23.17;;;12.77;;
48002;SDS011;33768;48.578;11.574;2022-12-05T14:33:38;20.57;;;12.53;;
48002;SDS011;33768;48.578;11.574;2022-12-05T14:43:31;23.83;;;15.77;;
48002;SDS011;33768;48.578;11.574;2022-12-05T14:46:37;23.70;;;15.30;;
48002;SDS011;33768;48.578;11.574;2022-12-05T14:56:23;28.13;;;20.57;;
48002;SDS011;33768;48.578;11.574;2022-12-05T14:59:36;24.37;;;16.70;;
48002;SDS011;33768;48.578;11.574;2022-12-05T15:03:22;22.97;;;14.17;;
48002;SDS011;33768;48.578;11.574;2022-12-05T15:11:23;20.00;;;13.37;;
48002;SDS011;33768;48.578;11.574;2022-12-05T15:14:33;19.80;;;12.57;;
48002;SDS011;33768;48.578;11.574;2022-12-05T15:18:07;20.93;;;12.60;;
48002;SDS011;33768;48.578;11.574;2022-12-05T15:24:26;24.63;;;16.30;;
48002;SDS011;33768;48.578;11.574;2022-12-05T15:27:31;19.67;;;13.90;;
48002;SDS011;33768;48.578;11.574;2022-12-05T15:30:37;23.07;;;14.10;;
48002;SDS011;33768;48.578;11.574;2022-12-05T15:33:50;20.30;;;13.80;;
48002;SDS011;33768;48.578;11.574;2022-12-05T15:37:09;24.53;;;15.13;;
48002;SDS011;33768;48.578;11.574;2022-12-05T15:40:18;25.40;;;14.43;;
48002;SDS011;33768;48.578;11.574;2022-12-05T15:46:31;17.40;;;11.87;;
48002;SDS011;33768;48.578;11.574;2022-12-05T15:49:35;21.10;;;13.03;;
48002;SDS011;33768;48.578;11.574;2022-12-05T15:52:40;20.83;;;13.53;;
48002;SDS011;33768;48.578;11.574;2022-12-05T15:55:52;18.13;;;11.97;;
48002;SDS011;33768;48.578;11.574;2022-12-05T16:02:19;18.97;;;12.10;;
48002;SDS011;33768;48.578;11.574;2022-12-05T16:08:41;20.57;;;12.53;;
48002;SDS011;33768;48.578;11.574;2022-12-05T16:18:30;25.00;;;15.70;;
48002;SDS011;33768;48.578;11.574;2022-12-05T16:21:36;39.17;;;21.53;;
48002;SDS011;33768;48.578;11.574;2022-12-05T16:25:02;23.43;;;13.93;;
48002;SDS011;33768;48.578;11.574;2022-12-05T16:28:19;18.83;;;12.13;;
48002;SDS011;33768;48.578;11.574;2022-12-05T16:31:24;19.13;;;11.67;;
48002;SDS011;33768;48.578;11.574;2022-12-05T16:34:31;20.37;;;11.17;;
48002;SDS011;33768;48.578;11.574;2022-12-05T16:37:37;21.77;;;11.50;;
48002;SDS011;33768;48.578;11.574;2022-12-05T16:43:48;17.07;;;10.77;;
48002;SDS011;33768;48.578;11.574;2022-12-05T16:46:55;19.10;;;12.30;;
48002;SDS011;33768;48.578;11.574;2022-12-05T16:50:18;30.80;;;17.80;;
48002;SDS011;33768;48.578;11.574;2022-12-05T16:53:33;50.00;;;30.87;;
48002;SDS011;33768;48.578;11.574;2022-12-05T16:56:37;35.53;;;24.87;;
48002;SDS011;33768;48.578;11.574;2022-12-05T16:59:42;29.97;;;22.23;;
48002;SDS011;33768;48.578;11.574;2022-12-05T17:02:48;17.77;;;11.87;;
48002;SDS011;33768;48.578;11.574;2022-12-05T17:05:52;17.60;;;12.30;;
48002;SDS011;33768;48.578;11.574;2022-12-05T17:08:57;17.53;;;12.17;;
48002;SDS011;33768;48.578;11.574;2022-12-05T17:12:13;15.40;;;9.97;;
48002;SDS011;33768;48.578;11.574;2022-12-05T17:15:23;14.47;;;9.77;;
48002;SDS011;33768;48.578;11.574;2022-12-05T17:18:28;13.47;;;8.93;;
48002;SDS011;33768;48.578;11.574;2022-12-05T17:21:32;12.80;;;9.17;;
48002;SDS011;33768;48.578;11.574;2022-12-05T17:24:37;12.03;;;8.37;;
48002;SDS011;33768;48.578;11.574;2022-12-05T17:27:41;15.03;;;9.87;;
48002;SDS011;33768;48.578;11.574;2022-12-05T17:30:46;13.93;;;9.50;;
48002;SDS011;33768;48.578;11.574;2022-12-05T17:33:51;14.60;;;9.87;;
48002;SDS011;33768;48.578;11.574;2022-12-05T17:36:56;12.33;;;8.97;;
48002;SDS011;33768;48.578;11.574;2022-12-05T17:40:00;14.90;;;9.70;;
48002;SDS011;33768;48.578;11.574;2022-12-05T17:43:04;12.50;;;9.50;;
48002;SDS011;33768;48.578;11.574;2022-12-05T17:46:08;13.03;;;9.33;;
48002;SDS011;33768;48.578;11.574;2022-12-05T17:49:13;12.87;;;8.77;;
48002;SDS011;33768;48.578;11.574;2022-12-05T17:52:18;11.93;;;8.67;;
48002;SDS011;33768;48.578;11.574;2022-12-05T17:55:23;11.63;;;8.53;;
48002;SDS011;33768;48.578;11.574;2022-12-05T17:58:29;13.80;;;8.47;;
48002;SDS011;33768;48.578;11.574;2022-12-05T18:01:34;10.00;;;7.53;;
48002;SDS011;33768;48.578;11.574;2022-12-05T18:04:39;12.80;;;8.57;;
48002;SDS011;33768;48.578;11.574;2022-12-05T18:07:43;12.63;;;8.27;;
48002;SDS011;33768;48.578;11.574;2022-12-05T18:10:48;12.57;;;8.47;;
48002;SDS011;33768;48.578;11.574;2022-12-05T18:13:54;12.10;;;8.87;;
48002;SDS011;33768;48.578;11.574;2022-12-05T18:16:59;15.43;;;10.63;;
48002;SDS011;33768;48.578;11.574;2022-12-05T18:20:04;21.83;;;16.10;;
48002;SDS011;33768;48.578;11.574;2022-12-05T18:23:10;23.87;;;16.73;;
48002;SDS011;33768;48.578;11.574;2022-12-05T18:26:15;17.67;;;12.17;;
48002;SDS011;33768;48.578;11.574;2022-12-05T18:29:19;13.93;;;9.67;;
48002;SDS011;33768;48.578;11.574;2022-12-05T18:32:23;14.70;;;10.60;;
48002;SDS011;33768;48.578;11.574;2022-12-05T18:35:28;11.93;;;9.20;;
48002;SDS011;33768;48.578;11.574;2022-12-05T18:38:52;13.33;;;9.30;;
48002;SDS011;33768;48.578;11.574;2022-12-05T18:41:57;15.53;;;9.77;;
48002;SDS011;33768;48.578;11.574;2022-12-05T18:45:01;13.53;;;10.43;;
48002;SDS011;33768;48.578;11.574;2022-12-05T18:48:07;14.67;;;9.93;;
48002;SDS011;33768;48.578;11.574;2022-12-05T18:51:13;14.23;;;10.17;;
48002;SDS011;33768;48.578;11.574;2022-12-05T18:54:19;14.77;;;9.83;;
48002;SDS011;33768;48.578;11.574;2022-12-05T18:57:23;13.73;;;10.00;;
48002;SDS011;33768;48.578;11.574;2022-12-05T19:00:28;14.03;;;10.43;;
48002;SDS011;33768;48.578;11.574;2022-12-05T19:03:32;13.53;;;9.73;;
48002;SDS011;33768;48.578;11.574;2022-12-05T19:06:37;15.03;;;10.53;;
48002;SDS011;33768;48.578;11.574;2022-12-05T19:09:44;15.87;;;10.43;;
48002;SDS011;33768;48.578;11.574;2022-12-05T19:12:48;18.10;;;11.53;;
48002;SDS011;33768;48.578;11.574;2022-12-05T19:15:59;18.60;;;12.00;;
48002;SDS011;33768;48.578;11.574;2022-12-05T19:19:05;13.43;;;10.00;;
48002;SDS011;33768;48.578;11.574;2022-12-05T19:22:11;15.63;;;11.23;;
48002;SDS011;33768;48.578;11.574;2022-12-05T19:25:15;15.73;;;11.20;;
48002;SDS011;33768;48.578;11.574;2022-12-05T19:28:20;14.57;;;10.07;;
48002;SDS011;33768;48.578;11.574;2022-12-05T19:31:24;13.53;;;10.23;;
48002;SDS011;33768;48.578;11.574;2022-12-05T19:34:29;17.13;;;12.40;;
48002;SDS011;33768;48.578;11.574;2022-12-05T19:37:33;16.83;;;13.23;;
48002;SDS011;33768;48.578;11.574;2022-12-05T19:40:38;17.07;;;12.63;;
48002;SDS011;33768;48.578;11.574;2022-12-05T19:43:42;14.90;;;10.53;;
48002;SDS011;33768;48.578;11.574;2022-12-05T19:46:47;14.83;;;10.10;;
48002;SDS011;33768;48.578;11.574;2022-12-05T19:50:08;12.87;;;9.53;;
48002;SDS011;33768;48.578;11.574;2022-12-05T19:53:12;14.27;;;10.47;;
48002;SDS011;33768;48.578;11.574;2022-12-05T19:56:20;10.50;;;8.30;;
48002;SDS011;33768;48.578;11.574;2022-12-05T19:59:26;11.83;;;9.30;;
48002;SDS011;33768;48.578;11.574;2022-12-05T20:02:30;13.80;;;8.97;;
48002;SDS011;33768;48.578;11.574;2022-12-05T20:05:34;13.13;;;10.00;;
48002;SDS011;33768;48.578;11.574;2022-12-05T20:08:38;13.77;;;9.73;;
48002;SDS011;33768;48.578;11.574;2022-12-05T20:11:43;14.33;;;10.27;;
48002;SDS011;33768;48.578;11.574;2022-12-05T20:14:48;12.07;;;9.17;;
48002;SDS011;33768;48.578;11.574;2022-12-05T20:17:52;10.73;;;8.83;;
48002;SDS011;33768;48.578;11.574;2022-12-05T20:20:57;12.40;;;8.90;;
48002;SDS011;33768;48.578;11.574;2022-12-05T20:24:02;14.33;;;9.23;;
48002;SDS011;33768;48.578;11.574;2022-12-05T20:27:07;12.27;;;10.17;;
48002;SDS011;33768;48.578;11.574;2022-12-05T20:30:11;13.60;;;9.37;;
48002;SDS011;33768;48.578;11.574;2022-12-05T20:33:15;12.00;;;9.17;;
48002;SDS011;33768;48.578;11.574;2022-12-05T20:36:20;10.57;;;8.27;;
48002;SDS011;33768;48.578;11.574;2022-12-05T20:39:30;11.90;;;8.80;;
48002;SDS011;33768;48.578;11.574;2022-12-05T20:42:35;11.73;;;9.10;;
48002;SDS011;33768;48.578;11.574;2022-12-05T20:45:39;10.70;;;8.37;;
48002;SDS011;33768;48.578;11.574;2022-12-05T20:48:43;10.27;;;7.63;;
48002;SDS011;33768;48.578;11.574;2022-12-05T20:51:48;12.73;;;8.57;;
48002;SDS011;33768;48.578;11.574;2022-12-05T20:54:52;9.23;;;7.53;;
48002;SDS011;33768;48.578;11.574;2022-12-05T20:57:57;10.60;;;7.43;;
48002;SDS011;33768;48.578;11.574;2022-12-05T21:01:03;11.40;;;8.27;;
48002;SDS011;33768;48.578;11.574;2022-12-05T21:04:09;9.53;;;7.53;;
48002;SDS011;33768;48.578;11.574;2022-12-05T21:07:14;9.93;;;7.53;;
48002;SDS011;33768;48.578;11.574;2022-12-05T21:10:18;13.80;;;10.83;;